• Join FlightAware (Why Join?)
  • Login
  • US Flag 
08:18AM EDT


 

Airport Tracker/Info


-or-


 

Live Flight TrackerFlight Track Log ✈ FAO853 ✈ 26-Mar-2014 ✈ KPBG - KPIE

Flight Track Log - Related Links

Times and Time Zones

All times are in EDT time to prevent confusion due to time zone crossing. See the FAO853 flight status page for this flight to view local times or setup timezone preferences in your user account.

Time Position Orientation Groundspeed Altitude Reporting Facility
EDT Latitude Longitude Course Direction KTS MPH feet Rate Location/Type
11:21AM 44.7525 -73.5208 189° South 227 261 5,600  Level Boston Center
11:22AM 44.8092 -73.5678 330° Northwest 247 284 8,300 2,220 Climbing Boston Center
11:23AM 44.7750 -73.6575 242° Southwest 295 339 10,100 1,500 Climbing Boston Center
11:24AM 44.6767 -73.6658 183° South 307 353 11,400 1,860 Climbing Boston Center
11:25AM 44.0981 -73.5604 188° South  Level FlightAware Approximate
11:25AM 44.5800 -73.6650 180° South 351 404 14,000  Level Boston Center
11:26AM 43.9880 -73.5842 189° South  Level FlightAware Approximate
11:26AM 44.4792 -73.6689 182° South 362 417 17,200  Level Boston Center
11:27AM 44.3869 -73.6700 180° South 337 388 20,500 2,520 Climbing Boston Center
11:28AM 44.2969 -73.6750 182° South 327 376 22,300 1,500 Climbing Boston Center
11:29AM 44.2019 -73.6783 181° South 337 388 23,600 1,260 Climbing Boston Center
11:30AM 44.1014 -73.6831 182° South 357 411 25,000 1,320 Climbing Boston Center
11:31AM 44.0031 -73.7122 192° South 367 422 26,400 1,320 Climbing Boston Center
11:32AM 43.8967 -73.7669 200° South 372 428 27,800 1,260 Climbing Boston Center
11:33AM 43.7989 -73.8169 200° South 373 429 29,000 1,080 Climbing Boston Center
11:34AM 43.6978 -73.8156 179° South 362 417 30,000 480 Climbing Boston Center
11:35AM 43.5861 -73.8125 179° South 363 418 30,000  Level Boston Center
11:36AM 43.4842 -73.8117 180° South 365 420 30,000  Level Boston Center
11:37AM 43.3903 -73.8106 180° South 367 422 30,000  Level Boston Center
11:38AM 43.2875 -73.8094 180° South 368 423 30,000  Level Boston Center
11:39AM 43.1842 -73.8081 179° South 369 425 30,000  Level Boston Center
11:40AM 43.0808 -73.8075 180° South 369 425 30,000  Level Boston Center
11:41AM 42.9758 -73.8050 179° South 371 427 30,000  Level Boston Center
11:42AM 42.8622 -73.8039 180° South 371 427 30,000  Level Boston Center
11:43AM 42.7583 -73.8047 180° South 372 428 30,000  Level Boston Center
11:44AM 42.6564 -73.8436 196° South 383 441 30,000 120 Level Boston Center
11:45AM 42.5564 -73.8889 198° South 382 440 30,300 360 Climbing Boston Center
11:46AM 42.4553 -73.9344 198° South 383 441 30,800 480 Climbing Boston Center
11:47AM 42.3494 -73.9811 198° South 395 455 31,300 420 Climbing Boston Center
11:48AM 42.2425 -74.0281 198° South 404 465 31,700 300 Climbing Boston Center
11:49AM 42.1128 -74.0864 198° South 408 470 32,000 120 Climbing Boston Center
11:50AM 42.0039 -74.1283 196° South 408 470 32,000  Level Boston Center
11:51AM 41.8933 -74.1700 196° South 413 475 32,000  Level Boston Center
11:52AM 41.7842 -74.2106 195° South 419 482 32,000  Level Boston Center
11:53AM 41.6711 -74.2533 196° South 421 484 32,000  Level Boston Center
11:54AM 41.5564 -74.2961 196° South 426 490 32,000  Level Boston Center
11:55AM 41.4408 -74.3397 196° South 427 491 32,000  Level Boston Center
11:57AM 41.1883 -74.4269 195° South 443 510 32,000  Level New York Center
11:58AM 41.0722 -74.4728 197° South 443 510 32,000  Level New York Center
11:59AM 40.9564 -74.5186 197° South 443 510 32,000  Level New York Center
12:00PM 40.8383 -74.5589 194° South 443 510 32,000  Level New York Center
12:02PM 40.6344 -74.6322 195° South 441 507 32,000  Level Washington Center
12:03PM 40.5161 -74.6775 196° South 441 507 32,000 -60 Level Washington Center
12:04PM 40.3956 -74.7200 195° South 441 507 31,900  Descending Washington Center
12:05PM 40.2772 -74.7622 195° South 441 507 32,000  Climbing Washington Center
12:06PM 40.1714 -74.8069 198° South 441 507 32,000  Level Washington Center
12:07PM 40.0403 -74.8517 195° South 441 507 32,000  Level Washington Center
12:08PM 39.9303 -74.8933 196° South 441 507 32,000  Level Washington Center
12:09PM 39.7972 -74.9406 195° South 452 520 32,000  Level Washington Center
12:10PM 39.6892 -74.9794 195° South 457 526 32,000 -60 Level Washington Center
12:11PM 39.5664 -75.0181 194° South 457 526 31,900  Descending Washington Center
12:12PM 39.4478 -75.0594 195° South 451 519 32,000  Climbing Washington Center
12:13PM 39.3250 -75.1033 195° South 451 519 32,000  Level Washington Center
12:14PM 39.2042 -75.1497 197° South 456 525 32,000  Level Washington Center
12:15PM 39.0856 -75.2067 200° South 456 525 32,000 -60 Level Washington Center
12:16PM 38.9669 -75.2525 197° South 456 525 31,900 -60 Descending Washington Center
12:17PM 38.8483 -75.3011 198° South 456 525 31,900  Level Washington Center
12:18PM 38.7294 -75.3547 199° South 461 531 32,000  Climbing Washington Center
12:19PM 38.6086 -75.4003 196° South 461 531 31,900 -60 Descending Washington Center
12:20PM 38.4858 -75.4511 198° South 461 531 31,900  Level Washington Center
12:21PM 38.3692 -75.5069 201° Southwest 461 531 32,000  Climbing Washington Center
12:22PM 38.2650 -75.5839 210° Southwest 450 518 32,000  Level Washington Center
12:23PM 38.1689 -75.6736 216° Southwest 443 510 32,000  Level Washington Center
12:24PM 38.0731 -75.7658 217° Southwest 438 504 32,000  Level Washington Center
12:25PM 37.9769 -75.8578 217° Southwest 438 504 32,000  Level Washington Center
12:26PM 37.8806 -75.9469 216° Southwest 438 504 32,000  Level Washington Center
12:27PM 37.7844 -76.0333 215° Southwest 433 498 32,000 -60 Level Washington Center
12:28PM 37.6922 -76.1272 219° Southwest 433 498 31,900  Descending Washington Center
12:29PM 37.5917 -76.2131 214° Southwest 438 504 32,000  Climbing Washington Center
12:30PM 37.4953 -76.3011 216° Southwest 438 504 32,000  Level Washington Center
12:31PM 37.3989 -76.3892 216° Southwest 433 498 32,000  Level Washington Center
12:32PM 37.3022 -76.4769 216° Southwest 433 498 32,000  Level Washington Center
12:33PM 37.2056 -76.5672 217° Southwest 433 498 32,000  Level Washington Center
12:34PM 37.1069 -76.6569 216° Southwest 433 498 32,000  Level Washington Center
12:35PM 37.0122 -76.7417 216° Southwest 433 498 32,000  Level Washington Center
12:36PM 36.9153 -76.8283 216° Southwest 433 498 32,000  Level Washington Center
12:37PM 36.8183 -76.9150 216° Southwest 433 498 32,000  Level Washington Center
12:38PM 36.7278 -77.0017 218° Southwest 433 498 32,000  Level Washington Center
12:39PM 36.6328 -77.0881 216° Southwest 428 493 32,000  Level Washington Center
12:40PM 36.5419 -77.1767 218° Southwest 428 493 32,000  Level Washington Center
12:41PM 36.4492 -77.2625 217° Southwest 428 493 32,000  Level Washington Center
12:42PM 36.3558 -77.3508 217° Southwest 423 487 32,000  Level Washington Center
12:43PM 36.2608 -77.4389 217° Southwest 423 487 32,000  Level Washington Center
12:44PM 36.1697 -77.5269 218° Southwest 418 481 32,000  Level Washington Center
12:45PM 36.0744 -77.6144 217° Southwest 418 481 32,000  Level Washington Center
12:46PM 35.9811 -77.7019 217° Southwest 423 487 32,000  Level Washington Center
12:47PM 35.8794 -77.7839 213° Southwest 429 494 32,000  Level Washington Center
12:48PM 35.7778 -77.8631 212° Southwest 436 502 32,000  Level Washington Center
12:49PM 35.6761 -77.9419 212° Southwest 442 509 32,000  Level Washington Center
12:50PM 35.5744 -78.0206 212° Southwest 442 509 32,000  Level Washington Center
12:51PM 35.4747 -78.0992 213° Southwest 442 509 32,000  Level Washington Center
12:52PM 35.3750 -78.1775 213° Southwest 442 509 32,000  Level Washington Center
12:53PM 35.2753 -78.2506 211° Southwest 436 502 32,000  Level Washington Center
12:54PM 35.1775 -78.3314 214° Southwest 436 502 32,000  Level Washington Center
12:55PM 35.0756 -78.4092 212° Southwest 436 502 32,000  Level Washington Center
12:56PM 34.9650 -78.4939 212° Southwest 436 502 32,000  Level Washington Center
12:58PM 34.7581 -78.6475 211° Southwest 440 506 32,000  Level Jacksonville Center
12:59PM 34.6564 -78.7256 212° Southwest 440 506 32,000  Level Jacksonville Center
01:00PM 34.5567 -78.8036 213° Southwest 440 506 32,000 -60 Level Jacksonville Center
01:01PM 34.4672 -78.8758 214° Southwest 440 506 31,900  Descending Jacksonville Center
01:02PM 34.3672 -78.9508 212° Southwest 440 506 32,000  Climbing Jacksonville Center
01:03PM 34.2675 -79.0281 213° Southwest 440 506 32,000  Level Jacksonville Center
01:04PM 34.1736 -79.0950 211° Southwest 434 499 32,000 -60 Level Jacksonville Center
01:05PM 34.0531 -79.1856 212° Southwest 434 499 31,900  Descending Jacksonville Center
01:06PM 33.9533 -79.2625 213° Southwest 434 499 32,000  Climbing Jacksonville Center
01:07PM 33.8508 -79.3342 210° Southwest 434 499 32,000  Level Jacksonville Center
01:08PM 33.7528 -79.4081 212° Southwest 434 499 32,000  Level Jacksonville Center
01:09PM 33.6689 -79.4714 212° Southwest 417 480 32,000 -60 Level Jacksonville Center
01:10PM 33.5667 -79.5450 211° Southwest 417 480 31,900  Descending Jacksonville Center
01:11PM 33.4706 -79.6183 212° Southwest 422 486 32,000  Climbing Jacksonville Center
01:12PM 33.3700 -79.6917 211° Southwest 422 486 31,900 -60 Descending Jacksonville Center
01:13PM 33.2717 -79.7647 212° Southwest 422 486 31,900  Level Jacksonville Center
01:14PM 33.1714 -79.8378 211° Southwest 422 486 32,000  Climbing Jacksonville Center
01:15PM 33.0728 -79.9131 213° Southwest 422 486 31,900  Descending Jacksonville Center
01:16PM 32.9872 -80.0000 220° Southwest 422 486 32,000  Climbing Jacksonville Center
01:17PM 32.9017 -80.0894 221° Southwest 416 479 32,000  Level Jacksonville Center
01:18PM 32.8181 -80.1808 223° Southwest 416 479 32,000  Level Jacksonville Center
01:19PM 32.7322 -80.2725 222° Southwest 416 479 32,000 -60 Level Jacksonville Center
01:20PM 32.6403 -80.3714 222° Southwest 410 472 31,900  Descending Jacksonville Center
01:21PM 32.5564 -80.4575 221° Southwest 410 472 32,000  Climbing Jacksonville Center
01:22PM 32.4725 -80.5483 222° Southwest 410 472 32,000  Level Jacksonville Center
01:23PM 32.3867 -80.6392 222° Southwest 407 468 32,000 -60 Level Jacksonville Center
01:24PM 32.3006 -80.7272 221° Southwest 418 481 31,900  Descending Jacksonville Center
01:25PM 32.2267 -80.8050 222° Southwest 406 467 32,000  Climbing Jacksonville Center
01:26PM 32.1342 -80.9028 222° Southwest 411 473 32,000  Level Jacksonville Center
01:27PM 32.0581 -80.9781 220° Southwest 405 466 32,000  Level Jacksonville Center
01:28PM 31.9656 -81.0781 223° Southwest 410 472 32,000  Level Jacksonville Center
01:29PM 31.8811 -81.1628 220° Southwest 410 472 32,000  Level Jacksonville Center
01:30PM 31.8050 -81.2425 222° Southwest 410 472 32,000  Level Jacksonville Center
01:31PM 31.7103 -81.3369 220° Southwest 410 472 32,000  Level Jacksonville Center
01:32PM 31.6256 -81.4261 222° Southwest 410 472 32,000  Level Jacksonville Center
01:33PM 31.5492 -81.5053 221° Southwest 410 472 32,000  Level Jacksonville Center
01:34PM 31.4542 -81.5994 220° Southwest 410 472 32,000  Level Jacksonville Center
01:35PM 31.3694 -81.6858 221° Southwest 410 472 32,000  Level Jacksonville Center
01:36PM 31.2847 -81.7719 221° Southwest 410 472 32,000 -60 Level Jacksonville Center
01:37PM 31.2061 -81.8506 221° Southwest 410 472 31,900  Descending Jacksonville Center
01:38PM 31.0958 -81.8978 200° South 415 478 32,000  Climbing Jacksonville Center
01:39PM 30.9750 -81.9356 195° South 429 494 31,900  Descending Jacksonville Center
01:40PM 30.8583 -81.9731 195° South 435 501 32,000  Climbing Jacksonville Center
01:41PM 30.7394 -82.0081 194° South 441 507 31,900 -60 Descending Jacksonville Center
01:42PM 30.6186 -82.0453 195° South 441 507 31,900  Level Jacksonville Center
01:43PM 30.5000 -82.0800 194° South 441 507 32,000  Climbing Jacksonville Center
01:44PM 30.3811 -82.1147 194° South 441 507 32,000 -300 Level Jacksonville Center
01:45PM 30.2644 -82.1519 195° South 436 502 31,400 -1,080 Descending Jacksonville Center
01:46PM 30.1414 -82.1889 195° South 436 502 29,900 -1,200 Descending Jacksonville Center
01:47PM 30.0183 -82.2306 196° South 450 518 29,000 -840 Descending Jacksonville Center
01:48PM 29.8956 -82.2672 195° South 456 525 28,300 -720 Descending Jacksonville Center
01:49PM 29.7725 -82.3039 195° South 456 525 27,600 -780 Descending Jacksonville Center
01:50PM 29.6347 -82.3406 193° South 456 525 26,800 -720 Descending Jacksonville Center
01:51PM 29.5033 -82.3389 179° South 461 531 26,200 -480 Descending Jacksonville Center
01:52PM 29.3739 -82.3158 171° South 461 531 25,900 -900 Descending Jacksonville Center
01:53PM 29.2483 -82.2881 169° South 461 531 24,400 -2,160 Descending Jacksonville Center
01:54PM 29.1294 -82.2675 171° South 461 531 21,600 -2,940 Descending Jacksonville Center
01:55PM 29.0167 -82.2633 178° South 437 503 18,600 -2,820 Descending Jacksonville Center
01:56PM 28.9164 -82.2639 180° South 415 478 16,000 -2,160 Descending Jacksonville Center
01:58PM 28.6667 -82.2667 181° South 352 405 11,400 -1,860 Descending Tampa TRACON
01:59PM 28.5667 -82.2667 180° South 346 398 10,000 -780 Descending Tampa TRACON
02:00PM 28.5167 -82.3333 230° Southwest 274 315 10,000  Level Tampa TRACON
02:01PM 28.4833 -82.4167 246° West 267 307 10,000  Level Tampa TRACON
02:02PM 28.4500 -82.4833 240° Southwest 277 319 10,000 -240 Level Tampa TRACON
02:03PM 28.4000 -82.5667 236° Southwest 278 320 9,600 -900 Descending Tampa TRACON
02:04PM 28.3833 -82.6167 249° West 279 321 8,400 -1,620 Descending Tampa TRACON
02:05PM 28.3333 -82.7167 240° Southwest 277 319 6,400 -1,680 Descending Tampa TRACON
02:06PM 28.2667 -82.7667 213° Southwest 275 316 4,800 -1,200 Descending Tampa TRACON
02:07PM 28.2000 -82.8167 213° Southwest 278 320 4,000 -480 Descending Tampa TRACON
02:08PM 28.1333 -82.8333 192° South 269 310 4,000  Level Tampa TRACON
02:09PM 28.0667 -82.8167 168° South 242 278 4,000 -120 Level Tampa TRACON
02:10PM 28.0000 -82.8167 180° South 224 258 3,800 -600 Descending Tampa TRACON
02:11PM 27.9500 -82.8167 180° South 228 262 2,800 -960 Descending Tampa TRACON
02:12PM 27.8833 -82.8167 180° South 202 232 2,100 -600 Descending Tampa TRACON
02:13PM 27.8333 -82.8000 164° South 197 227 1,600 -240 Descending Tampa TRACON
02:14PM 27.8000 -82.7833 156° South 173 199 1,600  Level Tampa TRACON
02:16PM 27.8167 -82.6833 38° Northeast 154 177 1,600 -240 Level Tampa TRACON
02:17PM 27.8500 -82.6833 360° North 138 159 1,000 -720 Descending Tampa TRACON
02:18PM 27.8833 -82.6833 360° North 139 160 200 -840 Descending Tampa TRACON
02:20PM 27.9000 -82.6833 North  Level FlightAware Approximate
02:27PM 27.9100 -82.6875 North  Level Estimated
02:28PM 27.9100 -82.6875 North  Level Estimated